Time;durP1;ratioP1;P1;durP2;ratioP2;P2;SDS_P1;SDS_P2;PMS_P1;PMS_P2;Temp;Humidity;BMP_temperature;BMP_pressure;BME280_temperature;BME280_humidity;BME280_pressure;Samples;Min_cycle;Max_cycle;Signal;HPM_P1;HPM_P2
2022/05/03 00:00:10;;;;;;;9.25;5.65;;;6.40;99.90;;;;;;4953712;28;20532;-64
2022/05/03 00:02:47;;;;;;;7.25;4.95;;;6.40;99.90;;;;;;4934376;29;20550;-63
2022/05/03 00:05:31;;;;;;;7.85;5.72;;;6.40;99.90;;;;;;4946741;29;20066;-64
2022/05/03 00:08:20;;;;;;;11.57;6.35;;;6.40;99.90;;;;;;4955655;28;20529;-63
2022/05/03 00:10:55;;;;;;;8.77;5.28;;;6.30;99.90;;;;;;4951532;28;20059;-64
2022/05/03 00:13:28;;;;;;;7.88;4.97;;;6.10;99.90;;;;;;4937788;29;20039;-64
2022/05/03 00:15:55;;;;;;;5.05;3.80;;;5.90;99.90;;;;;;4954701;29;20046;-64
2022/05/03 00:18:21;;;;;;;7.55;5.35;;;5.50;99.90;;;;;;4955808;28;20074;-64
2022/05/03 00:20:48;;;;;;;6.13;4.50;;;5.40;99.90;;;;;;4941404;28;20078;-64
2022/05/03 00:23:15;;;;;;;8.02;5.30;;;5.40;99.90;;;;;;4949868;28;20489;-64
2022/05/03 00:25:41;;;;;;;8.85;6.20;;;5.50;99.90;;;;;;4955170;28;20039;-64
2022/05/03 00:28:08;;;;;;;9.65;6.75;;;5.60;99.90;;;;;;4955723;28;20042;-64
2022/05/03 00:30:35;;;;;;;8.82;5.82;;;5.60;99.90;;;;;;4940127;28;20046;-64
2022/05/03 00:33:04;;;;;;;9.00;5.85;;;5.50;99.90;;;;;;4946958;29;20035;-64
2022/05/03 00:35:30;;;;;;;6.30;4.75;;;5.40;99.90;;;;;;4955556;28;20039;-64
2022/05/03 00:37:56;;;;;;;12.88;6.00;;;5.20;99.90;;;;;;4951410;29;20406;-63
2022/05/03 00:40:22;;;;;;;8.45;5.60;;;5.20;99.90;;;;;;4955008;29;20070;-64
2022/05/03 00:43:01;;;;;;;8.27;5.82;;;5.30;99.90;;;;;;4953804;29;20043;-64
2022/05/03 00:45:45;;;;;;;10.95;6.47;;;5.30;99.90;;;;;;4947217;28;20507;-64
2022/05/03 00:48:43;;;;;;;11.05;7.57;;;5.30;99.90;;;;;;4948300;29;20114;-64
2022/05/03 00:51:28;;;;;;;11.85;7.35;;;5.30;99.90;;;;;;4955300;28;20069;-63
2022/05/03 00:54:12;;;;;;;9.02;6.03;;;5.30;99.90;;;;;;4943687;28;20428;-64
2022/05/03 00:57:11;;;;;;;7.80;5.05;;;5.20;99.90;;;;;;4951923;28;20035;-64
2022/05/03 01:00:02;;;;;;;8.43;6.15;;;5.10;99.90;;;;;;4953962;28;20062;-64
2022/05/03 01:02:46;;;;;;;12.13;7.35;;;5.00;99.90;;;;;;4937299;29;20405;-64
2022/05/03 01:05:19;;;;;;;10.52;6.88;;;5.10;99.90;;;;;;4947823;29;20039;-64
2022/05/03 01:08:01;;;;;;;13.50;7.20;;;5.00;99.90;;;;;;4954844;28;20050;-64
2022/05/03 01:10:34;;;;;;;;;;;5.00;99.90;;;;;;4943240;28;20574;-64
2022/05/03 01:13:27;;;;;;;8.50;5.82;;;5.00;99.90;;;;;;4949028;28;19918;-64
2022/05/03 01:16:00;;;;;;;13.05;7.32;;;4.80;99.90;;;;;;4954867;28;20047;-64
2022/05/03 01:18:34;;;;;;;12.20;7.30;;;4.80;99.90;;;;;;4950336;29;20565;-64
2022/05/03 01:21:18;;;;;;;11.13;5.90;;;4.80;99.90;;;;;;4948725;28;20560;-64
2022/05/03 01:24:01;;;;;;;12.65;7.30;;;4.80;99.90;;;;;;4954077;28;20062;-64
2022/05/03 01:27:04;;;;;;;14.10;9.07;;;4.80;99.90;;;;;;4939501;28;20542;-63
2022/05/03 01:29:34;;;;;;;12.25;8.27;;;4.80;99.90;;;;;;4942539;29;20070;-64
2022/05/03 01:32:05;;;;;;;13.80;9.32;;;4.80;99.90;;;;;;4954061;28;20518;-64
2022/05/03 01:34:32;;;;;;;12.63;7.45;;;4.80;99.90;;;;;;4954453;28;20062;-63
2022/05/03 01:37:00;;;;;;;8.38;5.40;;;4.70;99.90;;;;;;4949139;28;20043;-63
2022/05/03 01:39:50;;;;;;;9.73;6.78;;;4.50;99.90;;;;;;4953815;28;20055;-63
2022/05/03 01:42:32;;;;;;;11.23;7.18;;;4.50;99.90;;;;;;4932819;29;20380;-65
2022/05/03 01:45:09;;;;;;;12.02;7.53;;;4.40;99.90;;;;;;4947537;28;20050;-63
2022/05/03 01:47:56;;;;;;;11.63;8.05;;;4.40;99.90;;;;;;4953822;28;20047;-63
2022/05/03 01:50:38;;;;;;;9.40;7.22;;;4.50;99.90;;;;;;4948023;29;20058;-63
2022/05/03 01:53:35;;;;;;;12.60;7.80;;;4.40;99.90;;;;;;4941773;29;20110;-63
2022/05/03 01:56:09;;;;;;;11.52;7.20;;;4.40;99.90;;;;;;4938084;29;20055;-63
2022/05/03 01:58:57;;;;;;;10.30;7.10;;;4.50;99.90;;;;;;4953936;28;20051;-63
2022/05/03 02:01:41;;;;;;;15.43;8.10;;;4.50;99.90;;;;;;4949059;29;20122;-63
2022/05/03 02:04:38;;;;;;;11.23;7.68;;;4.50;99.90;;;;;;4946454;28;20043;-63
2022/05/03 02:07:21;;;;;;;13.20;8.38;;;4.30;99.90;;;;;;4954059;28;20050;-63
2022/05/03 02:09:52;;;;;;;12.35;7.70;;;4.40;99.90;;;;;;4945220;28;20109;-64
2022/05/03 02:12:20;;;;;;;11.57;7.78;;;4.40;99.90;;;;;;4953564;28;20035;-64
2022/05/03 02:14:55;;;;;;;11.40;8.35;;;4.40;99.90;;;;;;4953116;28;20395;-64
2022/05/03 02:17:42;;;;;;;17.88;10.48;;;4.30;99.90;;;;;;4942825;28;20035;-64
2022/05/03 02:20:33;;;;;;;15.98;10.35;;;4.30;99.90;;;;;;4953022;28;20047;-64
2022/05/03 02:23:42;;;;;;;13.38;9.70;;;4.40;99.90;;;;;;4953457;28;20123;-64
2022/05/03 02:26:17;;;;;;;16.98;10.65;;;4.60;99.90;;;;;;4942797;29;20038;-63
2022/05/03 02:28:45;;;;;;;15.45;9.27;;;4.60;99.90;;;;;;4953570;29;20110;-64
2022/05/03 02:31:17;;;;;;;14.73;9.45;;;4.60;99.90;;;;;;4953663;28;20070;-63
2022/05/03 02:34:00;;;;;;;12.75;8.75;;;4.60;99.90;;;;;;4939508;28;20063;-63
2022/05/03 02:36:27;;;;;;;15.50;9.85;;;4.70;99.90;;;;;;4951512;29;20090;-63
2022/05/03 02:38:59;;;;;;;12.85;9.05;;;4.60;99.90;;;;;;4953047;28;20446;-64
2022/05/03 02:41:26;;;;;;;12.55;9.10;;;4.60;99.90;;;;;;4953603;28;20043;-64
2022/05/03 02:43:55;;;;;;;13.27;7.15;;;4.60;99.90;;;;;;4945401;28;20402;-64
2022/05/03 02:46:56;;;;;;;11.05;7.60;;;4.50;99.90;;;;;;4952881;28;20502;-64
2022/05/03 02:49:37;;;;;;;9.77;7.22;;;4.40;99.90;;;;;;4928529;29;20051;-64
2022/05/03 02:52:21;;;;;;;10.37;7.70;;;4.30;99.90;;;;;;4940457;29;20043;-63
2022/05/03 02:54:57;;;;;;;13.73;8.13;;;4.20;99.90;;;;;;4953041;28;20275;-63
2022/05/03 02:57:52;;;;;;;13.02;9.13;;;4.20;99.90;;;;;;4947907;28;20038;-64
2022/05/03 03:03:22;;;;;;;13.68;9.05;;;4.10;99.90;;;;;;4944655;29;20040;-63
2022/05/03 03:05:58;;;;;;;11.50;8.20;;;4.10;99.90;;;;;;4946896;28;20077;-64
2022/05/03 03:08:25;;;;;;;8.82;5.45;;;4.10;99.90;;;;;;4934030;29;20036;-63
2022/05/03 03:10:59;;;;;;;34.10;8.20;;;3.80;99.90;;;;;;4951368;29;20093;-62
2022/05/03 03:13:50;;;;;;;29.05;11.07;;;3.90;99.90;;;;;;4952292;28;20043;-63
2022/05/03 03:16:24;;;;;;;15.85;10.00;;;3.80;99.90;;;;;;4942509;29;20035;-63
2022/05/03 03:18:51;;;;;;;17.67;11.25;;;3.80;99.90;;;;;;4952511;29;20043;-63
2022/05/03 03:21:20;;;;;;;20.02;12.40;;;3.90;99.90;;;;;;4953110;29;20036;-63
2022/05/03 03:23:49;;;;;;;20.73;12.90;;;4.00;99.90;;;;;;4943147;28;20035;-62
2022/05/03 03:26:17;;;;;;;19.40;12.07;;;4.00;99.90;;;;;;4952134;29;20402;-63
2022/05/03 03:28:46;;;;;;;19.45;12.65;;;4.00;99.90;;;;;;4952648;28;20639;-63
2022/05/03 03:31:12;;;;;;;20.17;12.05;;;4.10;99.90;;;;;;4947313;28;20182;-62
2022/05/03 03:33:40;;;;;;;21.02;12.95;;;4.10;99.90;;;;;;4951345;28;20402;-63
2022/05/03 03:36:08;;;;;;;20.13;12.18;;;4.10;99.90;;;;;;4952960;29;20046;-63
2022/05/03 03:38:39;;;;;;;18.42;12.25;;;4.10;99.90;;;;;;4936748;29;20589;-62
2022/05/03 03:41:06;;;;;;;;;;;4.10;99.90;;;;;;4937041;29;20116;-65
2022/05/03 03:43:31;;;;;;;18.52;11.57;;;4.10;99.90;;;;;;4946126;29;19929;-64
2022/05/03 03:45:57;;;;;;;19.17;10.85;;;4.00;99.90;;;;;;4954888;28;20043;-63
2022/05/03 03:48:22;;;;;;;17.48;11.38;;;4.00;99.90;;;;;;4947623;29;20406;-64
2022/05/03 03:50:49;;;;;;;17.42;11.20;;;4.00;99.90;;;;;;4939759;29;20043;-64
2022/05/03 03:53:15;;;;;;;17.10;10.80;;;4.00;99.90;;;;;;4955424;28;20028;-64
2022/05/03 03:55:42;;;;;;;587.53;22.90;;;3.90;99.90;;;;;;4952968;28;20106;-64
2022/05/03 03:58:08;;;;;;;19.63;9.82;;;3.80;99.90;;;;;;4950388;28;20423;-64
2022/05/03 04:00:34;;;;;;;92.50;10.48;;;3.80;99.90;;;;;;4955518;28;20043;-64
2022/05/03 04:03:01;;;;;;;16.92;11.02;;;3.80;99.90;;;;;;4955849;28;20047;-64
2022/05/03 04:05:28;;;;;;;18.77;11.57;;;3.80;99.90;;;;;;4952909;28;20047;-64
2022/05/03 04:07:54;;;;;;;19.77;12.73;;;3.80;99.90;;;;;;4951676;28;20043;-64
2022/05/03 04:10:20;;;;;;;23.45;14.10;;;3.90;99.90;;;;;;4955157;29;20439;-63
2022/05/03 04:12:46;;;;;;;22.02;13.07;;;3.90;99.90;;;;;;4949808;28;20043;-64
2022/05/03 04:15:12;;;;;;;24.10;14.25;;;3.90;99.90;;;;;;4946856;29;20582;-64
2022/05/03 04:17:38;;;;;;;20.65;12.38;;;3.90;99.90;;;;;;4955345;29;20039;-64
2022/05/03 04:20:04;;;;;;;19.77;12.50;;;4.00;99.90;;;;;;4955649;29;20055;-64
2022/05/03 04:22:31;;;;;;;20.38;13.43;;;3.90;99.90;;;;;;4948722;28;20430;-64
2022/05/03 04:24:58;;;;;;;18.80;12.57;;;4.00;99.90;;;;;;4943639;29;20086;-64
2022/05/03 04:27:26;;;;;;;24.20;12.82;;;4.00;99.90;;;;;;4952670;28;20039;-64
2022/05/03 04:29:52;;;;;;;22.60;13.07;;;4.00;99.90;;;;;;4952187;28;20126;-64
2022/05/03 04:32:17;;;;;;;18.50;11.27;;;4.00;99.90;;;;;;4945313;29;20125;-64
2022/05/03 04:34:43;;;;;;;19.83;13.02;;;3.90;99.90;;;;;;4954631;29;20042;-64
2022/05/03 04:37:09;;;;;;;22.48;13.32;;;4.00;99.90;;;;;;4955461;29;20420;-64
2022/05/03 04:39:34;;;;;;;21.05;12.93;;;4.00;99.90;;;;;;4950902;29;20086;-64
2022/05/03 04:42:00;;;;;;;19.27;12.00;;;4.10;99.90;;;;;;4949035;28;20031;-64
2022/05/03 04:44:27;;;;;;;18.63;10.93;;;4.10;99.90;;;;;;4954686;28;20512;-64
2022/05/03 04:46:52;;;;;;;18.30;11.85;;;4.20;99.90;;;;;;4948235;28;20047;-64
2022/05/03 04:49:18;;;;;;;19.58;12.65;;;4.20;99.90;;;;;;4949107;29;20082;-64
2022/05/03 04:51:44;;;;;;;17.48;11.95;;;4.30;99.90;;;;;;4954688;28;20549;-64
2022/05/03 04:54:09;;;;;;;19.77;12.63;;;4.30;99.90;;;;;;4947366;28;20047;-64
2022/05/03 04:56:35;;;;;;;17.13;11.48;;;4.30;99.90;;;;;;4947572;29;20453;-64
2022/05/03 04:59:02;;;;;;;15.95;10.45;;;4.10;99.90;;;;;;4947038;29;20041;-64
2022/05/03 05:01:28;;;;;;;12.98;9.13;;;4.10;99.90;;;;;;4944857;28;20074;-64
2022/05/03 05:03:54;;;;;;;14.48;10.20;;;4.20;99.90;;;;;;4946769;28;20471;-64
2022/05/03 05:06:20;;;;;;;14.55;10.57;;;4.20;99.90;;;;;;4950737;28;20071;-64
2022/05/03 05:08:46;;;;;;;20.95;12.13;;;4.30;99.90;;;;;;4958744;28;20089;-64
2022/05/03 05:11:11;;;;;;;19.73;12.52;;;4.40;99.90;;;;;;4949314;28;20053;-64
2022/05/03 05:13:38;;;;;;;20.85;13.20;;;4.40;99.90;;;;;;4941816;28;20039;-63
2022/05/03 05:16:05;;;;;;;21.67;14.32;;;4.60;99.90;;;;;;4939731;28;20577;-64
2022/05/03 05:18:31;;;;;;;21.65;14.55;;;4.70;99.90;;;;;;4954686;28;20086;-64
2022/05/03 05:20:57;;;;;;;21.52;13.85;;;4.80;99.90;;;;;;4950007;28;20070;-64
2022/05/03 05:23:22;;;;;;;21.10;14.30;;;4.90;99.90;;;;;;4956474;28;20050;-64
2022/05/03 05:25:49;;;;;;;34.60;13.80;;;5.00;99.90;;;;;;4957299;28;20054;-64
2022/05/03 05:28:16;;;;;;;35.67;14.75;;;5.00;99.90;;;;;;4950024;28;20062;-64
2022/05/03 05:30:42;;;;;;;23.23;13.80;;;5.10;99.90;;;;;;4953723;28;20131;-64
2022/05/03 05:33:08;;;;;;;24.63;14.45;;;5.20;99.90;;;;;;4929497;28;20123;-64
2022/05/03 05:35:35;;;;;;;25.08;14.90;;;5.40;99.90;;;;;;4955892;28;20066;-64
2022/05/03 05:38:01;;;;;;;25.23;14.77;;;5.50;99.90;;;;;;4941129;28;20130;-65
2022/05/03 05:40:27;;;;;;;22.92;14.13;;;5.60;99.90;;;;;;4956715;28;20089;-65
2022/05/03 05:42:52;;;;;;;24.70;15.65;;;5.70;99.90;;;;;;4944636;28;20039;-66
2022/05/03 05:45:18;;;;;;;22.88;15.65;;;5.90;99.90;;;;;;4952536;28;20118;-65
2022/05/03 05:47:43;;;;;;;24.05;16.00;;;6.00;99.90;;;;;;4957029;28;20062;-65
2022/05/03 05:50:10;;;;;;;29.15;16.27;;;6.20;99.90;;;;;;4946834;28;20040;-65
2022/05/03 05:55:20;;;;;;;28.15;17.05;;;6.40;99.90;;;;;;4956788;28;20031;-66
2022/05/03 05:57:45;;;;;;;26.65;17.17;;;6.60;99.90;;;;;;4956238;28;20482;-66
2022/05/03 06:00:12;;;;;;;29.00;18.80;;;6.60;99.90;;;;;;4952257;28;20479;-65
2022/05/03 06:02:38;;;;;;;30.30;18.98;;;6.80;99.90;;;;;;4944859;28;20040;-65
2022/05/03 06:05:04;;;;;;;32.53;19.67;;;6.90;99.90;;;;;;4951558;28;20039;-66
2022/05/03 06:07:29;;;;;;;29.35;19.30;;;7.10;99.90;;;;;;4962096;28;20042;-65
2022/05/03 06:09:55;;;;;;;35.35;21.10;;;7.30;99.90;;;;;;4942746;28;20094;-65
2022/05/03 06:12:20;;;;;;;34.90;21.23;;;7.40;99.90;;;;;;4947588;28;20087;-66
2022/05/03 06:14:46;;;;;;;38.03;22.77;;;7.60;99.90;;;;;;4951906;28;20407;-64
2022/05/03 06:17:12;;;;;;;54.72;29.98;;;7.80;99.90;;;;;;4951161;28;20078;-64
2022/05/03 06:19:38;;;;;;;55.53;31.67;;;8.00;99.90;;;;;;4945592;28;20130;-64
2022/05/03 06:22:04;;;;;;;56.30;32.33;;;8.30;99.90;;;;;;4957968;28;20035;-64
2022/05/03 06:24:30;;;;;;;47.60;27.05;;;8.50;99.90;;;;;;4949805;28;20079;-64
2022/05/03 06:26:55;;;;;;;46.58;26.70;;;8.70;99.90;;;;;;4940359;28;20049;-64
2022/05/03 06:29:21;;;;;;;50.53;30.02;;;8.90;99.90;;;;;;4951029;28;20046;-64
2022/05/03 06:31:46;;;;;;;57.30;31.42;;;9.10;99.90;;;;;;4950426;28;20039;-64
2022/05/03 06:34:12;;;;;;;59.35;33.45;;;9.30;99.90;;;;;;4949126;28;20078;-64
2022/05/03 06:36:38;;;;;;;61.22;34.53;;;9.40;99.90;;;;;;4944315;28;20185;-64
2022/05/03 06:39:05;;;;;;;45.83;27.00;;;9.60;99.90;;;;;;4967161;28;20074;-64
2022/05/03 06:41:31;;;;;;;57.13;33.45;;;9.80;99.90;;;;;;4956371;28;20042;-64
2022/05/03 06:43:58;;;;;;;55.80;32.65;;;9.90;99.90;;;;;;4947408;28;20031;-64
2022/05/03 06:46:25;;;;;;;57.65;33.22;;;10.00;99.90;;;;;;4942128;28;20039;-64
2022/05/03 06:48:50;;;;;;;52.92;29.45;;;10.20;99.90;;;;;;4958622;28;20057;-64
2022/05/03 06:51:16;;;;;;;54.25;30.27;;;10.30;99.90;;;;;;4944221;28;20094;-64
2022/05/03 06:53:42;;;;;;;52.08;30.80;;;10.40;99.90;;;;;;4948696;28;20069;-64
2022/05/03 06:56:08;;;;;;;56.97;32.08;;;10.50;99.90;;;;;;4958344;28;20536;-64
2022/05/03 06:58:33;;;;;;;59.97;32.38;;;10.70;99.90;;;;;;4958932;28;20035;-64
2022/05/03 07:01:09;;;;;;;55.95;31.98;;;10.80;99.90;;;;;;4938725;28;20114;-64
2022/05/03 07:03:36;;;;;;;55.45;29.75;;;11.00;99.90;;;;;;4962578;28;20043;-64
2022/05/03 07:06:02;;;;;;;52.97;30.20;;;11.10;99.90;;;;;;4959305;28;20045;-64
2022/05/03 07:08:28;;;;;;;57.65;32.40;;;11.20;99.90;;;;;;4956007;28;20446;-64
2022/05/03 07:10:54;;;;;;;53.75;30.17;;;11.50;99.90;;;;;;4941984;28;20098;-65
2022/05/03 07:13:23;;;;;;;55.42;29.25;;;11.70;99.90;;;;;;4951689;28;20035;-66
2022/05/03 07:15:53;;;;;;;51.78;28.80;;;11.90;99.90;;;;;;4948605;28;20114;-63
2022/05/03 07:23:48;;;;;;;49.90;27.58;;;11.80;99.90;;;;;;4948798;28;20052;-68
2022/05/03 07:26:14;;;;;;;51.83;27.15;;;11.80;99.90;;;;;;4936583;28;20433;-66
2022/05/03 07:28:40;;;;;;;51.33;27.70;;;11.80;99.90;;;;;;4943320;28;20047;-66
2022/05/03 07:31:08;;;;;;;54.83;26.92;;;11.70;99.90;;;;;;4945107;28;20043;-67
2022/05/03 07:33:34;;;;;;;51.60;28.42;;;11.70;99.90;;;;;;4936535;28;20043;-64
2022/05/03 07:36:00;;;;;;;53.60;28.80;;;11.80;99.90;;;;;;4944014;28;20532;-66
2022/05/03 07:38:25;;;;;;;53.15;28.85;;;11.80;99.90;;;;;;4948428;28;20038;-66
2022/05/03 07:40:51;;;;;;;51.45;25.73;;;11.90;99.90;;;;;;4945448;28;20039;-67
2022/05/03 07:43:16;;;;;;;58.60;28.95;;;11.80;99.90;;;;;;4949462;28;20154;-67
2022/05/03 07:45:42;;;;;;;52.83;27.77;;;11.90;99.90;;;;;;4961172;28;20043;-66
2022/05/03 07:48:07;;;;;;;55.03;27.42;;;11.70;99.90;;;;;;4962895;28;20147;-66
2022/05/03 07:50:33;;;;;;;52.25;28.38;;;11.70;99.90;;;;;;4947543;28;20063;-67
2022/05/03 07:52:59;;;;;;;52.08;28.23;;;11.60;99.90;;;;;;4949318;29;20044;-67
2022/05/03 07:55:25;;;;;;;59.92;30.08;;;11.50;99.90;;;;;;4955748;28;20066;-66
2022/05/03 07:57:50;;;;;;;62.08;30.35;;;11.40;99.90;;;;;;4961334;28;20144;-66
2022/05/03 08:00:16;;;;;;;58.33;30.50;;;11.40;99.90;;;;;;4954804;28;20394;-66
2022/05/03 08:02:42;;;;;;;60.25;30.33;;;11.40;99.90;;;;;;4960925;28;20039;-67
2022/05/03 08:05:08;;;;;;;59.88;29.23;;;11.40;99.90;;;;;;4954425;28;20038;-66
2022/05/03 08:07:35;;;;;;;63.38;29.63;;;11.30;99.90;;;;;;4959513;28;20077;-66
2022/05/03 08:10:02;;;;;;;66.55;30.80;;;11.40;99.90;;;;;;4961856;28;20039;-66
2022/05/03 08:12:27;;;;;;;65.65;30.25;;;11.40;99.90;;;;;;4957572;28;20043;-67
2022/05/03 08:14:53;;;;;;;59.38;28.40;;;11.40;99.90;;;;;;4955487;28;20632;-67
2022/05/03 08:17:19;;;;;;;62.38;25.73;;;11.40;99.90;;;;;;4944504;28;20035;-67
2022/05/03 08:19:45;;;;;;;66.07;29.27;;;11.30;99.90;;;;;;4950574;29;20127;-67
2022/05/03 08:22:11;;;;;;;69.45;29.70;;;11.30;99.90;;;;;;4955366;28;20079;-68
2022/05/03 08:24:37;;;;;;;71.43;29.50;;;11.30;99.90;;;;;;4943485;28;20043;-67
2022/05/03 08:27:03;;;;;;;72.00;28.90;;;11.20;99.90;;;;;;4955402;29;20035;-68
2022/05/03 08:29:31;;;;;;;78.95;28.55;;;11.20;99.90;;;;;;4955576;28;20049;-68
2022/05/03 08:31:58;;;;;;;78.97;29.23;;;11.20;99.90;;;;;;4931269;28;20116;-67
2022/05/03 08:34:23;;;;;;;76.82;28.50;;;11.10;99.90;;;;;;4945358;28;20517;-67
2022/05/03 08:42:17;;;;;;;71.85;29.60;;;11.10;99.90;;;;;;4944662;29;20043;-67
2022/05/03 08:44:43;;;;;;;75.85;28.10;;;11.00;99.90;;;;;;4954492;29;20043;-67
2022/05/03 08:47:09;;;;;;;75.15;30.70;;;10.90;99.90;;;;;;4951702;29;20491;-68
2022/05/03 08:49:52;;;;;;;68.55;29.92;;;10.90;99.90;;;;;;4949103;29;20066;-68
2022/05/03 08:52:21;;;;;;;61.92;26.77;;;10.80;99.90;;;;;;4945873;29;20517;-67
2022/05/03 08:54:47;;;;;;;63.65;27.92;;;10.80;99.90;;;;;;4944893;28;20097;-67
2022/05/03 08:57:13;;;;;;;52.88;24.52;;;10.80;99.90;;;;;;4942798;28;20498;-67
2022/05/03 08:59:39;;;;;;;61.83;26.48;;;10.90;99.90;;;;;;4945091;29;20035;-68
2022/05/03 09:02:05;;;;;;;58.72;28.15;;;10.90;99.90;;;;;;4954271;28;20097;-67
2022/05/03 09:04:31;;;;;;;54.67;25.83;;;10.90;99.90;;;;;;4951465;28;20047;-68
2022/05/03 09:06:57;;;;;;;56.42;26.08;;;11.00;99.90;;;;;;4953835;28;20546;-67
2022/05/03 09:09:24;;;;;;;52.40;23.13;;;10.90;99.90;;;;;;4954348;28;20126;-68
2022/05/03 09:11:53;;;;;;;48.38;22.83;;;11.10;99.90;;;;;;4951389;28;20122;-67
2022/05/03 09:14:42;;;;;;;52.22;24.75;;;11.20;99.90;;;;;;4945209;28;20070;-68
2022/05/03 09:17:08;;;;;;;45.70;23.77;;;11.50;99.90;;;;;;4954612;28;20092;-68
2022/05/03 09:19:34;;;;;;;52.70;25.10;;;11.60;99.90;;;;;;4954314;29;20565;-68
2022/05/03 09:25:13;;;;;;;43.08;21.83;;;12.10;99.90;;;;;;4938885;29;20076;-68
2022/05/03 09:27:39;;;;;;;43.53;21.70;;;12.30;99.90;;;;;;4941691;29;20059;-67
2022/05/03 09:30:08;;;;;;;42.75;22.23;;;12.40;99.90;;;;;;4949723;29;20142;-67
2022/05/03 09:32:44;;;;;;;40.65;21.35;;;12.50;99.90;;;;;;4949620;28;20043;-67
2022/05/03 09:35:28;;;;;;;36.80;19.80;;;12.70;99.90;;;;;;4945694;28;20398;-68
2022/05/03 09:37:53;;;;;;;30.98;19.10;;;12.80;99.90;;;;;;4959575;28;20547;-68
2022/05/03 09:40:19;;;;;;;28.45;16.90;;;12.80;99.90;;;;;;4966655;28;20122;-67
2022/05/03 09:42:55;;;;;;;29.73;15.45;;;12.80;99.90;;;;;;4956540;28;20565;-68
2022/05/03 09:45:25;;;;;;;30.42;16.80;;;12.70;99.90;;;;;;4948692;29;20039;-68
2022/05/03 09:47:56;;;;;;;23.23;12.95;;;12.60;99.90;;;;;;4939335;28;20512;-67
2022/05/03 09:50:33;;;;;;;22.70;12.25;;;12.50;99.90;;;;;;4958073;28;20031;-68
2022/05/03 09:53:28;;;;;;;22.33;13.65;;;12.40;99.90;;;;;;4955321;28;20128;-66
2022/05/03 09:55:54;;;;;;;18.88;10.93;;;12.40;99.90;;;;;;4948202;28;20052;-68
2022/05/03 09:58:20;;;;;;;22.17;11.77;;;12.40;99.90;;;;;;4955213;28;20486;-67
2022/05/03 10:00:47;;;;;;;17.95;11.48;;;12.30;99.90;;;;;;4947168;28;20055;-67
2022/05/03 10:03:13;;;;;;;18.63;11.45;;;12.30;99.90;;;;;;4938336;28;20513;-68
2022/05/03 10:05:41;;;;;;;19.15;10.15;;;12.20;99.90;;;;;;4948115;28;20051;-67
2022/05/03 10:08:11;;;;;;;18.20;10.30;;;12.20;99.90;;;;;;4954927;28;20500;-68
2022/05/03 10:10:41;;;;;;;18.17;8.55;;;12.20;99.90;;;;;;4954468;28;20383;-67
2022/05/03 10:13:06;;;;;;;14.50;7.80;;;12.10;99.90;;;;;;4955597;28;20035;-67
2022/05/03 10:21:20;;;;;;;19.27;8.82;;;11.90;99.90;;;;;;4939378;29;20498;-67
2022/05/03 10:24:09;;;;;;;16.15;8.32;;;12.00;99.90;;;;;;4939721;28;20441;-68
2022/05/03 10:26:56;;;;;;;19.95;9.15;;;12.10;99.90;;;;;;4940474;29;20075;-67
2022/05/03 10:29:23;;;;;;;15.77;8.50;;;12.00;99.90;;;;;;4946417;29;20043;-67
2022/05/03 10:31:54;;;;;;;15.27;7.07;;;12.10;99.90;;;;;;4949983;28;20043;-67
2022/05/03 10:34:42;;;;;;;16.73;8.90;;;12.10;99.90;;;;;;4944004;29;20087;-68
2022/05/03 10:37:08;;;;;;;13.75;6.60;;;12.20;99.90;;;;;;4937952;29;20043;-67
2022/05/03 10:39:35;;;;;;;18.73;8.63;;;12.20;99.90;;;;;;4941985;29;20047;-68
2022/05/03 10:42:11;;;;;;;20.77;8.90;;;12.20;99.90;;;;;;4945020;29;20044;-67
2022/05/03 10:44:45;;;;;;;14.73;7.38;;;12.40;99.90;;;;;;4945728;28;20134;-68
2022/05/03 10:47:13;;;;;;;12.82;6.72;;;12.40;99.90;;;;;;4949423;29;20379;-67
2022/05/03 10:50:17;;;;;;;22.98;9.70;;;12.40;99.90;;;;;;4931543;28;20095;-67
2022/05/03 10:52:56;;;;;;;21.67;9.75;;;12.40;99.90;;;;;;4943638;28;20549;-67
2022/05/03 10:55:23;;;;;;;20.30;9.90;;;12.40;99.90;;;;;;4945825;29;20035;-67
2022/05/03 10:58:26;;;;;;;21.27;9.85;;;12.50;99.90;;;;;;4937863;28;20103;-68
2022/05/03 11:01:11;;;;;;;20.33;8.18;;;12.60;99.90;;;;;;4956663;28;20442;-68
2022/05/03 11:04:01;;;;;;;23.23;9.70;;;12.50;99.90;;;;;;4963412;28;20397;-68
2022/05/03 11:06:26;;;;;;;30.17;10.35;;;12.50;99.90;;;;;;4954400;28;20146;-67
2022/05/03 11:11:44;;;;;;;17.38;7.72;;;12.50;99.90;;;;;;4951511;28;20671;-67
2022/05/03 11:14:21;;;;;;;29.15;9.85;;;12.30;99.90;;;;;;4954496;28;20049;-66
2022/05/03 11:17:05;;;;;;;31.20;10.13;;;12.10;99.90;;;;;;4972114;28;20061;-67
2022/05/03 11:19:52;;;;;;;30.17;11.35;;;12.20;99.90;;;;;;4947986;29;20074;-67
2022/05/03 11:22:29;;;;;;;27.35;10.00;;;12.30;99.90;;;;;;4949701;29;20486;-67
2022/05/03 11:24:57;;;;;;;27.65;9.95;;;12.30;99.90;;;;;;4955048;29;20391;-68
2022/05/03 11:27:24;;;;;;;27.30;10.43;;;12.40;99.90;;;;;;4940880;28;20079;-68
2022/05/03 11:29:56;;;;;;;21.88;8.68;;;12.50;99.90;;;;;;4946157;29;20047;-67
2022/05/03 11:32:29;;;;;;;23.80;9.27;;;12.60;99.90;;;;;;4952974;29;20098;-67
2022/05/03 11:35:06;;;;;;;27.20;9.43;;;12.60;99.90;;;;;;4953356;28;20043;-68
2022/05/03 11:37:33;;;;;;;20.38;7.97;;;12.70;99.90;;;;;;4941584;29;20051;-67
2022/05/03 11:40:09;;;;;;;22.65;8.30;;;12.70;99.90;;;;;;4949070;28;20051;-68
2022/05/03 11:42:39;;;;;;;22.80;7.85;;;12.80;99.90;;;;;;4954194;28;20548;-66
2022/05/03 11:45:06;;;;;;;16.23;7.37;;;12.90;99.90;;;;;;4947322;28;20031;-67
2022/05/03 11:47:42;;;;;;;20.75;7.65;;;12.90;99.90;;;;;;4940987;28;20522;-68
2022/05/03 11:50:11;;;;;;;18.45;7.25;;;12.90;99.90;;;;;;4955177;28;20035;-68
2022/05/03 11:58:06;;;;;;;19.58;7.13;;;13.00;99.90;;;;;;4943205;28;20046;-68
2022/05/03 12:00:44;;;;;;;16.52;6.68;;;13.10;99.90;;;;;;4945256;28;20046;-68
2022/05/03 12:03:09;;;;;;;13.43;4.90;;;13.00;99.90;;;;;;4951673;29;20489;-67
2022/05/03 12:05:36;;;;;;;16.85;6.70;;;13.00;99.90;;;;;;4954490;28;20090;-67
2022/05/03 12:08:02;;;;;;;21.13;8.02;;;13.00;99.90;;;;;;4956232;28;20039;-68
2022/05/03 12:10:30;;;;;;;16.55;7.05;;;13.10;99.90;;;;;;4945824;28;20118;-67
2022/05/03 12:13:12;;;;;;;15.43;6.95;;;13.10;99.90;;;;;;4949984;28;20055;-68
2022/05/03 12:15:42;;;;;;;15.63;7.40;;;13.30;99.90;;;;;;4966665;28;20046;-67
2022/05/03 12:18:15;;;;;;;15.25;7.00;;;13.40;99.90;;;;;;4937420;29;20098;-67
2022/05/03 12:20:48;;;;;;;19.05;7.25;;;13.60;99.90;;;;;;4951417;29;20047;-67
2022/05/03 12:23:20;;;;;;;13.32;6.43;;;13.80;99.90;;;;;;4949835;28;20146;-66
2022/05/03 12:25:48;;;;;;;14.50;6.80;;;14.00;99.90;;;;;;4943572;29;20066;-67
2022/05/03 12:28:14;;;;;;;12.43;6.22;;;14.20;99.90;;;;;;4946985;28;20090;-66
2022/05/03 12:30:40;;;;;;;16.98;6.45;;;14.30;99.90;;;;;;4947484;29;20051;-67
2022/05/03 12:33:08;;;;;;;12.93;6.70;;;14.50;99.90;;;;;;4946818;28;20094;-66
2022/05/03 12:35:36;;;;;;;12.52;5.72;;;14.60;99.90;;;;;;4950332;29;20050;-67
2022/05/03 12:38:16;;;;;;;14.57;6.63;;;14.60;99.90;;;;;;4947474;29;20062;-67
2022/05/03 12:40:56;;;;;;;15.48;5.70;;;14.50;99.90;;;;;;4951603;28;20123;-66
2022/05/03 12:43:23;;;;;;;16.20;6.07;;;14.60;99.90;;;;;;4940193;29;20090;-66
2022/05/03 12:46:03;;;;;;;13.57;6.03;;;14.50;99.90;;;;;;4951925;29;20039;-66
2022/05/03 12:48:29;;;;;;;16.35;5.57;;;14.50;99.90;;;;;;4955272;28;20039;-67
2022/05/03 12:50:56;;;;;;;16.10;5.57;;;14.50;99.90;;;;;;4938195;28;20067;-66
2022/05/03 12:53:26;;;;;;;16.15;5.28;;;14.30;99.90;;;;;;4949131;28;20418;-66
2022/05/03 12:55:56;;;;;;;12.57;5.43;;;14.20;99.90;;;;;;4942935;28;20043;-67
2022/05/03 12:58:22;;;;;;;15.48;5.35;;;14.20;99.90;;;;;;4943111;28;20050;-66
2022/05/03 13:00:53;;;;;;;14.43;5.22;;;14.30;99.90;;;;;;4955591;28;20035;-66
2022/05/03 13:03:21;;;;;;;14.25;5.18;;;14.30;99.90;;;;;;4951935;28;20070;-66
2022/05/03 13:05:46;;;;;;;17.30;5.28;;;14.30;99.90;;;;;;4937054;28;20046;-67
2022/05/03 13:08:12;;;;;;;13.13;5.35;;;14.50;99.90;;;;;;4938353;29;20040;-66
2022/05/03 13:10:38;;;;;;;14.10;5.10;;;14.60;99.90;;;;;;4949522;29;20050;-66
2022/05/03 13:13:04;;;;;;;17.30;5.90;;;14.70;99.90;;;;;;4952540;28;20557;-66
2022/05/03 13:15:31;;;;;;;15.35;5.40;;;14.90;99.90;;;;;;4944551;28;20039;-66
2022/05/03 13:17:57;;;;;;;15.05;5.70;;;15.20;99.90;;;;;;4948550;28;20063;-66
2022/05/03 13:20:23;;;;;;;16.38;5.68;;;15.40;99.90;;;;;;4954319;28;20046;-67
2022/05/03 13:22:48;;;;;;;12.65;5.13;;;15.40;99.90;;;;;;4942094;28;20043;-66
2022/05/03 13:25:14;;;;;;;11.82;4.78;;;15.50;99.90;;;;;;4951048;28;20051;-66
2022/05/03 13:27:40;;;;;;;9.15;4.55;;;15.50;99.90;;;;;;4939608;28;20036;-66
2022/05/03 13:30:06;;;;;;;11.02;5.55;;;15.50;99.90;;;;;;4950814;28;20379;-67